createdAt,value
2022-08-17T00:03:48.288Z,59.3
2022-08-17T00:09:58.917Z,58.2
2022-08-17T00:16:09.582Z,58
2022-08-17T00:22:33.912Z,57.6
2022-08-17T00:28:31.178Z,57.4
2022-08-17T00:34:41.566Z,58.1
2022-08-17T00:40:52.247Z,58.4
2022-08-17T00:47:02.896Z,58.7
2022-08-17T00:53:13.598Z,58.4
2022-08-17T00:59:24.261Z,58.4
2022-08-17T01:05:26.765Z,58.2
2022-08-17T01:11:37.558Z,58.7
2022-08-17T01:16:50.300Z,58.8
2022-08-17T01:23:00.981Z,59.1
2022-08-17T01:29:11.620Z,58.5
2022-08-17T01:35:22.385Z,59.2
2022-08-17T01:40:27.009Z,59.1
2022-08-17T01:46:37.729Z,58.9
2022-08-17T01:52:48.451Z,58.9
2022-08-17T01:58:59.048Z,59.4
2022-08-17T02:05:01.502Z,59.1
2022-08-17T02:11:12.163Z,59.8
2022-08-17T02:17:22.836Z,59.7
2022-08-17T02:23:33.496Z,60
2022-08-17T02:29:44.172Z,60.7
2022-08-17T02:35:54.858Z,61.3
2022-08-17T02:42:05.517Z,61.7
2022-08-17T02:48:16.170Z,61.4
2022-08-17T02:54:39.717Z,61.2
2022-08-17T03:00:37.505Z,61.1
2022-08-17T03:06:40.150Z,61.9
2022-08-17T03:12:50.948Z,62.7
2022-08-17T03:19:01.329Z,63.9
2022-08-17T03:25:11.987Z,64
2022-08-17T03:31:22.644Z,65.1
2022-08-17T03:37:33.381Z,64.8
2022-08-17T03:44:00.386Z,65.7
2022-08-17T03:50:11.034Z,65.3
2022-08-17T03:56:21.706Z,64.7
2022-08-17T04:02:32.410Z,64.6
2022-08-17T04:08:34.849Z,66.4
2022-08-17T04:14:53.088Z,66.4
2022-08-17T04:20:56.278Z,66
2022-08-17T04:27:06.859Z,65.5
2022-08-17T04:33:17.555Z,65.3
2022-08-17T04:39:28.252Z,65.5
2022-08-17T04:45:38.885Z,65.3
2022-08-17T04:51:54.697Z,65.3
2022-08-17T04:58:00.204Z,65.5
2022-08-17T05:04:20.785Z,65.7
2022-08-17T05:10:13.348Z,64.4
2022-08-17T05:16:24.031Z,65.1
2022-08-17T05:22:34.678Z,65.6
2022-08-17T05:28:46.050Z,64
2022-08-17T05:34:56.000Z,64.7
2022-08-17T05:41:06.667Z,66.1
2022-08-17T05:46:11.402Z,66.2
2022-08-17T05:52:22.066Z,64.8
2022-08-17T05:58:32.736Z,64.6
2022-08-17T06:04:35.215Z,65
2022-08-17T06:10:45.870Z,64.5
2022-08-17T06:15:58.787Z,64.5
2022-08-17T06:22:09.482Z,65.4
2022-08-17T06:28:20.133Z,63.8
2022-08-17T06:34:30.783Z,63.3
2022-08-17T06:40:41.445Z,64.2
2022-08-17T06:46:52.149Z,61.7
2022-08-17T06:53:02.800Z,61.8
2022-08-17T07:00:27.777Z,59
2022-08-17T07:07:44.214Z,58.5
2022-08-17T07:13:54.853Z,57
2022-08-17T07:20:05.556Z,53
2022-08-17T07:26:16.211Z,50.5
2022-08-17T07:32:26.878Z,50.1
2022-08-17T07:38:37.559Z,51
2022-08-17T07:44:48.198Z,52
2022-08-17T07:50:58.870Z,50
2022-08-17T07:57:09.534Z,48.1
2022-08-17T08:03:20.207Z,46.6
2022-08-17T08:09:22.702Z,47.5
2022-08-17T08:15:33.371Z,45.8
2022-08-17T08:21:44.003Z,46.4
2022-08-17T08:27:54.706Z,47
2022-08-17T08:34:05.368Z,47.2
2022-08-17T08:40:16.093Z,47.9
2022-08-17T08:45:28.951Z,47.7
2022-08-17T08:51:39.635Z,49.8
2022-08-17T08:57:50.584Z,49.9
2022-08-17T09:04:19.546Z,50.3
2022-08-17T09:10:03.433Z,50.5
2022-08-17T09:16:14.128Z,52.9
2022-08-17T09:22:24.775Z,53.4
2022-08-17T09:28:35.439Z,54.1
2022-08-17T09:34:48.411Z,54
2022-08-17T09:40:56.780Z,54
2022-08-17T09:47:07.435Z,54.4
2022-08-17T09:53:26.318Z,56.5
2022-08-17T10:00:51.101Z,56.2
2022-08-17T10:06:53.546Z,55.5
2022-08-17T10:13:04.368Z,55.1
2022-08-17T10:19:14.884Z,50.2
2022-08-17T10:25:30.218Z,45.2
2022-08-17T10:31:36.468Z,40.7
2022-08-17T10:37:47.000Z,40.7
2022-08-17T10:44:36.594Z,41.1
2022-08-17T10:50:08.259Z,41.2
2022-08-17T10:56:18.924Z,40.1
2022-08-17T11:02:29.568Z,40.1
2022-08-17T11:09:46.168Z,40.9
2022-08-17T11:14:59.120Z,40.4
2022-08-17T11:21:09.783Z,39.9
2022-08-17T11:27:20.433Z,41.3
2022-08-17T11:33:31.805Z,42.3
2022-08-17T11:39:41.951Z,43.2
2022-08-17T11:45:52.465Z,41.8
2022-08-17T11:52:03.117Z,43
2022-08-17T11:58:13.780Z,42.2
2022-08-17T12:04:24.493Z,40.8
2022-08-17T12:10:26.936Z,42.6
2022-08-17T12:16:37.610Z,43.2
2022-08-17T12:22:48.267Z,42.6
2022-08-17T12:28:59.662Z,42.7
2022-08-17T12:35:09.605Z,42.2
2022-08-17T12:41:20.246Z,41
2022-08-17T12:47:31.729Z,42.5
2022-08-17T12:53:41.591Z,43.3
2022-08-17T12:59:52.268Z,42.8
2022-08-17T13:06:02.923Z,42.5
2022-08-17T13:12:05.413Z,42.5
2022-08-17T13:18:16.086Z,42.8
2022-08-17T13:24:26.750Z,44.3
2022-08-17T13:30:37.401Z,45.4
2022-08-17T13:36:48.874Z,45
2022-08-17T13:43:15.148Z,45.1
2022-08-17T13:49:26.005Z,43.7
2022-08-17T13:55:36.472Z,43
2022-08-17T14:01:55.399Z,43.3
2022-08-17T14:09:11.937Z,43.7
2022-08-17T14:15:22.608Z,43
2022-08-17T14:21:33.280Z,44.2
2022-08-17T14:27:53.635Z,43.5
2022-08-17T14:33:54.621Z,44.1
2022-08-17T14:40:05.385Z,44.5
2022-08-17T14:46:15.954Z,45.4
2022-08-17T14:52:26.625Z,44.5
2022-08-17T14:58:37.277Z,44.5
2022-08-17T15:04:47.944Z,45
2022-08-17T15:12:04.586Z,44.2
2022-08-17T15:18:15.234Z,44.3
2022-08-17T15:24:25.892Z,45.5
2022-08-17T15:30:36.568Z,45.9
2022-08-17T15:36:49.642Z,47
2022-08-17T15:42:57.903Z,47
2022-08-17T15:49:08.558Z,46.8
2022-08-17T15:55:23.846Z,46.3
2022-08-17T16:03:01.337Z,45.7
2022-08-17T16:07:40.567Z,46.2
2022-08-17T16:13:59.441Z,46.7
2022-08-17T16:20:10.087Z,46.4
2022-08-17T16:26:20.770Z,46.5
2022-08-17T16:32:33.064Z,47
2022-08-17T16:40:04.500Z,47.9
2022-08-17T16:46:23.307Z,48.1
2022-08-17T16:53:48.097Z,47
2022-08-17T17:01:12.988Z,48.3
2022-08-17T17:07:23.638Z,48.8
2022-08-17T17:13:42.444Z,49.9
2022-08-17T17:19:53.083Z,49.4
2022-08-17T17:26:03.759Z,49.4
2022-08-17T17:32:14.445Z,48.9
2022-08-17T17:38:25.099Z,49.8
2022-08-17T17:44:35.779Z,50
2022-08-17T17:50:46.443Z,51.2
2022-08-17T17:56:57.117Z,51.5
2022-08-17T18:03:07.774Z,52.5
2022-08-17T18:09:19.373Z,52.3
2022-08-17T18:15:21.459Z,52.5
2022-08-17T18:21:31.586Z,53.2
2022-08-17T18:26:36.312Z,53.9
2022-08-17T18:32:46.996Z,54.9
2022-08-17T18:38:57.658Z,54.7
2022-08-17T18:44:10.553Z,55.2
2022-08-17T18:50:21.270Z,56.7
2022-08-17T18:56:31.894Z,56.7
2022-08-17T19:02:46.236Z,57.3
2022-08-17T19:08:53.247Z,57.9
2022-08-17T19:14:55.714Z,57.9
2022-08-17T19:21:06.389Z,59.5
2022-08-17T19:27:17.897Z,59.9
2022-08-17T19:33:27.751Z,60.6
2022-08-17T19:39:38.794Z,61.1
2022-08-17T19:45:49.066Z,61.6
2022-08-17T19:51:59.716Z,62.7
2022-08-17T19:58:10.387Z,63.2
2022-08-17T20:04:21.045Z,64.2
2022-08-17T20:10:31.709Z,64.6
2022-08-17T20:16:34.211Z,64.6
2022-08-17T20:22:51.751Z,65.7
2022-08-17T20:28:55.521Z,66.5
2022-08-17T20:35:06.194Z,66.5
2022-08-17T20:41:16.886Z,68.4
2022-08-17T20:47:27.720Z,70.8
2022-08-17T20:53:38.204Z,70.4
2022-08-17T20:59:48.864Z,71.7
2022-08-17T21:05:59.786Z,70.1
2022-08-17T21:12:10.342Z,69.5
2022-08-17T21:17:14.950Z,70.6
2022-08-17T21:23:25.601Z,72.1
2022-08-17T21:29:40.509Z,73
2022-08-17T21:35:46.944Z,73.6
2022-08-17T21:41:57.586Z,73.7
2022-08-17T21:48:08.304Z,74.6
2022-08-17T21:54:18.922Z,74.7
2022-08-17T22:00:29.627Z,74
2022-08-17T22:06:40.265Z,74.2
2022-08-17T22:12:50.929Z,76.1
2022-08-17T22:18:53.678Z,75.7
2022-08-17T22:25:04.100Z,78.2
2022-08-17T22:31:14.839Z,77.9
2022-08-17T22:36:19.462Z,78.1
2022-08-17T22:42:30.127Z,77.2
2022-08-17T22:48:40.790Z,76.6
2022-08-17T22:54:51.470Z,77.8
2022-08-17T23:01:02.130Z,81.3
2022-08-17T23:07:12.828Z,81.6
2022-08-17T23:14:29.419Z,81.9
2022-08-17T23:20:40.073Z,81.1
2022-08-17T23:26:50.740Z,81.3
2022-08-17T23:33:01.403Z,81.3
2022-08-17T23:39:12.078Z,80.1
2022-08-17T23:44:25.028Z,81.9
2022-08-17T23:50:35.679Z,82.2
2022-08-17T23:58:00.469Z,82.8
